Avisos AEMET Campiña SevillanaSin Avisos      + INFO

Informes METAR cercanos

 

LEZL - Sevilla (civ/Mil, Spain
Distancia de la estación: O 16km
Actualización: 15/06/2021 01:00
Despejado
Despejado
 Viento del SSO
Viento: SSO 15 km/h
Temperatura: 21°C
Rocío: 16°C
Humedad: 73%
Barómetro: 1016 hPa
Resumen: Despejado
Visibilidad: greater than 10 km
2021/06/14 23:00 LEZL 142300Z 21008KT 170V240 CAVOK 21/16 Q1016 NOSIG
LEMO - Moron (sp-Usafb), Spain
Distancia de la estación: SSE 27km
Actualización: 15/06/2021 01:30
Despejado
Despejado
 Viento del SO
Viento: SO 11 km/h
Temperatura: 19°C
Rocío: 16°C
Humedad: 83%
Barómetro: 1017 hPa
Resumen: Despejado
Visibilidad: greater than 10 km
2021/06/14 23:30 LEMO 142330Z 22006KT 170V260 CAVOK 19/16 Q1017 NOSIG